Maersk Weymouth — VRFS9 — position and weather

sailwx.info

Track history (hours):
 
Tides and Currents Weather Stations Pressure Air Temp Water Temp Dewpoint Dewpoint Depression Visibility Wind Speed Wind Dir Waves Ship Positions

Maersk Weymouth

Last reported at 2016-Jun-18 23:20 UTC. Time now 2016-Jun-27 00:39 UTC.
Position N 09°52' W 079°30'.
Warning: this ship's position is 8 days out of date.

Length 172 m; draft 7.5 m.

Type: Cargo ship. MMSI: 477622100.

Date/timePositionNaut miles runAvg speedWind from/ knotsBaromVisibWave heightAir tempDewpointWater temp
2016-Jun-18 23:20N 09°52' W 079°30'1215.9
2016-Jun-18 22:34N 09°45' W 079°40'1716.6
2016-Jun-18 21:34N 09°31' W 079°49'1010.4
2016-Jun-18 20:33N 09°22' W 079°53'0 0.1
2016-Jun-18 19:34N 09°22' W 079°53'0 0.0
2016-Jun-18 18:33N 09°22' W 079°53'0 0.0
2016-Jun-18 17:33N 09°22' W 079°53'0 0.0
2016-Jun-18 16:33N 09°22' W 079°53'0 0.0
2016-Jun-18 15:33N 09°22' W 079°53'0 0.0
2016-Jun-18 14:33N 09°22' W 079°53'0 0.0
2016-Jun-18 13:33N 09°22' W 079°53'0 0.0
2016-Jun-18 12:34N 09°22' W 079°53'0 0.0
2016-Jun-18 11:33N 09°22' W 079°53'0 0.4
2016-Jun-18 10:33N 09°22' W 079°53'5 5.1
2016-Jun-18 09:34N 09°27' W 079°53'4 4.1
2016-Jun-18 08:33N 09°31' W 079°53'7 7.4
2016-Jun-18 07:33N 09°38' W 079°51'7 6.6
2016-Jun-18 06:33N 09°45' W 079°50'2 1.9
2016-Jun-18 05:32N 09°46' W 079°52'1 0.7
2016-Jun-18 04:10N 09°46' W 079°51'0 0.8
2016-Jun-18 03:33N 09°46' W 079°50'1 1.0
2016-Jun-18 02:30N 09°45' W 079°50'2 1.7
2016-Jun-18 01:33N 09°44' W 079°48'6 6.0
2016-Jun-18 00:33N 09°45' W 079°42'6 5.9
2016-Jun-17 23:33N 09°46' W 079°36'6 5.9
2016-Jun-17 22:32N 09°47' W 079°30'6 6.3
2016-Jun-17 21:33N 09°48' W 079°24'7 7.0
2016-Jun-17 20:33N 09°49' W 079°17'  
2016-Jun-13 00:33N 25°47' W 079°40'9 9.4
2016-Jun-12 23:33N 25°55' W 079°45'10 9.9
2016-Jun-12 22:33N 26°01' W 079°54'1110.7
2016-Jun-12 21:33N 26°05' W 080°05'2 1.9
2016-Jun-12 20:27N 26°04' W 080°07'0 0.0
2016-Jun-12 19:27N 26°04' W 080°07'0 0.0
2016-Jun-12 18:30N 26°04' W 080°07'50 4.5
2016-Jun-12 07:25N 26°51' W 079°47'1112.4
2016-Jun-12 06:33N 27°01' W 079°45'28913.0
2016-Jun-11 08:24N 31°47' W 080°32'911.0
2016-Jun-11 07:33N 31°55' W 080°38'1211.8
2016-Jun-11 06:34N 32°02' W 080°49'1110.9
2016-Jun-11 05:34N 32°05' W 081°01'7 6.5
2016-Jun-11 04:33N 32°08' W 081°08'0 0.3
2016-Jun-11 03:33N 32°08' W 081°09'0 0.0
2016-Jun-11 02:33N 32°08' W 081°09'0 0.0
2016-Jun-11 01:33N 32°08' W 081°09'0 0.0
2016-Jun-11 00:33N 32°08' W 081°09'0 0.0
2016-Jun-10 23:33N 32°08' W 081°09'0 0.0
2016-Jun-10 22:33N 32°08' W 081°09'0 0.0
2016-Jun-10 21:33N 32°08' W 081°09'0 0.0
2016-Jun-10 20:33N 32°08' W 081°09'0 0.0
2016-Jun-10 19:33N 32°08' W 081°09'0 0.0
2016-Jun-10 18:33N 32°08' W 081°09'0 0.0
2016-Jun-10 17:33N 32°08' W 081°09'0 0.0
2016-Jun-10 16:33N 32°08' W 081°09'0 0.0
2016-Jun-10 15:27N 32°08' W 081°09'0 0.0
2016-Jun-10 14:33N 32°08' W 081°09'0 0.0
2016-Jun-10 13:27N 32°08' W 081°09'0 0.0
2016-Jun-10 12:33N 32°08' W 081°09'0 0.0
2016-Jun-10 11:33N 32°08' W 081°09'0 0.0
2016-Jun-10 10:33N 32°08' W 081°09'0 0.0
2016-Jun-10 09:33N 32°08' W 081°09'0 0.2
2016-Jun-10 08:33N 32°08' W 081°08'5 5.3
2016-Jun-10 07:33N 32°05' W 081°04'9 8.9
2016-Jun-10 06:33N 32°02' W 080°54'1313.0
2016-Jun-10 05:33N 31°58' W 080°39'9 8.7
2016-Jun-10 04:33N 31°60' W 080°29'  
Track history (hours):
 
Tides and Currents Weather Stations Pressure Air Temp Water Temp Dewpoint Dewpoint Depression Visibility Wind Speed Wind Dir Waves Ship Positions

Maersk Weymouth

Last reported at 2016-Jun-18 23:20 UTC. Time now 2016-Jun-27 00:39 UTC.
Position N 09°52' W 079°30'.
Warning: this ship's position is 8 days out of date.

Length 172 m; draft 7.5 m.

Type: Cargo ship. MMSI: 477622100.

Date/timePositionNaut miles runAvg speedWind from/ knotsBaromVisibWave heightAir tempDewpointWater temp
2016-Jun-18 23:20N 09°52' W 079°30'1215.9
2016-Jun-18 22:34N 09°45' W 079°40'1716.6
2016-Jun-18 21:34N 09°31' W 079°49'1010.4
2016-Jun-18 20:33N 09°22' W 079°53'0 0.1
2016-Jun-18 19:34N 09°22' W 079°53'0 0.0
2016-Jun-18 18:33N 09°22' W 079°53'0 0.0
2016-Jun-18 17:33N 09°22' W 079°53'0 0.0
2016-Jun-18 16:33N 09°22' W 079°53'0 0.0
2016-Jun-18 15:33N 09°22' W 079°53'0 0.0
2016-Jun-18 14:33N 09°22' W 079°53'0 0.0
2016-Jun-18 13:33N 09°22' W 079°53'0 0.0
2016-Jun-18 12:34N 09°22' W 079°53'0 0.0
2016-Jun-18 11:33N 09°22' W 079°53'0 0.4
2016-Jun-18 10:33N 09°22' W 079°53'5 5.1
2016-Jun-18 09:34N 09°27' W 079°53'4 4.1
2016-Jun-18 08:33N 09°31' W 079°53'7 7.4
2016-Jun-18 07:33N 09°38' W 079°51'7 6.6
2016-Jun-18 06:33N 09°45' W 079°50'2 1.9
2016-Jun-18 05:32N 09°46' W 079°52'1 0.7
2016-Jun-18 04:10N 09°46' W 079°51'0 0.8
2016-Jun-18 03:33N 09°46' W 079°50'1 1.0
2016-Jun-18 02:30N 09°45' W 079°50'2 1.7
2016-Jun-18 01:33N 09°44' W 079°48'6 6.0
2016-Jun-18 00:33N 09°45' W 079°42'6 5.9
2016-Jun-17 23:33N 09°46' W 079°36'6 5.9
2016-Jun-17 22:32N 09°47' W 079°30'6 6.3
2016-Jun-17 21:33N 09°48' W 079°24'7 7.0
2016-Jun-17 20:33N 09°49' W 079°17'  
2016-Jun-13 00:33N 25°47' W 079°40'9 9.4
2016-Jun-12 23:33N 25°55' W 079°45'10 9.9
2016-Jun-12 22:33N 26°01' W 079°54'1110.7
2016-Jun-12 21:33N 26°05' W 080°05'2 1.9
2016-Jun-12 20:27N 26°04' W 080°07'0 0.0
2016-Jun-12 19:27N 26°04' W 080°07'0 0.0
2016-Jun-12 18:30N 26°04' W 080°07'50 4.5
2016-Jun-12 07:25N 26°51' W 079°47'1112.4
2016-Jun-12 06:33N 27°01' W 079°45'28913.0
2016-Jun-11 08:24N 31°47' W 080°32'911.0
2016-Jun-11 07:33N 31°55' W 080°38'1211.8
2016-Jun-11 06:34N 32°02' W 080°49'1110.9
2016-Jun-11 05:34N 32°05' W 081°01'7 6.5
2016-Jun-11 04:33N 32°08' W 081°08'0 0.3
2016-Jun-11 03:33N 32°08' W 081°09'0 0.0
2016-Jun-11 02:33N 32°08' W 081°09'0 0.0
2016-Jun-11 01:33N 32°08' W 081°09'0 0.0
2016-Jun-11 00:33N 32°08' W 081°09'0 0.0
2016-Jun-10 23:33N 32°08' W 081°09'0 0.0
2016-Jun-10 22:33N 32°08' W 081°09'0 0.0
2016-Jun-10 21:33N 32°08' W 081°09'0 0.0
2016-Jun-10 20:33N 32°08' W 081°09'0 0.0
2016-Jun-10 19:33N 32°08' W 081°09'0 0.0
2016-Jun-10 18:33N 32°08' W 081°09'0 0.0
2016-Jun-10 17:33N 32°08' W 081°09'0 0.0
2016-Jun-10 16:33N 32°08' W 081°09'0 0.0
2016-Jun-10 15:27N 32°08' W 081°09'0 0.0
2016-Jun-10 14:33N 32°08' W 081°09'0 0.0
2016-Jun-10 13:27N 32°08' W 081°09'0 0.0
2016-Jun-10 12:33N 32°08' W 081°09'0 0.0
2016-Jun-10 11:33N 32°08' W 081°09'0 0.0
2016-Jun-10 10:33N 32°08' W 081°09'0 0.0
2016-Jun-10 09:33N 32°08' W 081°09'0 0.2
2016-Jun-10 08:33N 32°08' W 081°08'5 5.3
2016-Jun-10 07:33N 32°05' W 081°04'9 8.9
2016-Jun-10 06:33N 32°02' W 080°54'1313.0
2016-Jun-10 05:33N 31°58' W 080°39'9 8.7
2016-Jun-10 04:33N 31°60' W 080°29'  

Dump ship's entire track history